Time;durP1;ratioP1;P1;durP2;ratioP2;P2;SDS_P1;SDS_P2;PMS_P1;PMS_P2;Temp;Humidity;BMP_temperature;BMP_pressure;BME280_temperature;BME280_humidity;BME280_pressure;Samples;Min_cycle;Max_cycle;Signal;HPM_P1;HPM_P2
2022/07/30 00:01:04;;;;;;;20.42;15.80;;;;;;;20.34;85.93;97549.28;10370073;28;20068;-57
2022/07/30 00:06:03;;;;;;;18.55;15.32;;;;;;;20.19;86.56;97537.63;10370778;28;20040;-55
2022/07/30 00:11:02;;;;;;;21.90;16.48;;;;;;;20.14;86.56;97536.97;10371036;28;20526;-55
2022/07/30 00:16:01;;;;;;;18.50;16.48;;;;;;;20.10;86.61;97530.13;10371094;28;20115;-56
2022/07/30 00:21:00;;;;;;;20.98;16.50;;;;;;;20.05;86.96;97529.47;10371764;28;20048;-56
2022/07/30 00:25:59;;;;;;;19.40;16.77;;;;;;;20.02;87.57;97530.41;10370348;28;20570;-56
2022/07/30 00:30:59;;;;;;;17.73;15.57;;;;;;;19.98;87.92;97520.97;10369318;28;20064;-56
2022/07/30 00:35:58;;;;;;;18.45;16.50;;;;;;;20.05;87.62;97526.84;10370397;28;20175;-56
2022/07/30 00:40:58;;;;;;;20.00;17.63;;;;;;;20.01;88.06;97514.72;10370244;28;20136;-56
2022/07/30 00:45:56;;;;;;;22.95;17.85;;;;;;;19.99;87.71;97516.53;10370362;28;20069;-56
2022/07/30 00:50:55;;;;;;;22.70;18.55;;;;;;;19.96;88.35;97521.94;10375841;28;20037;-56
2022/07/30 00:55:54;;;;;;;22.23;17.95;;;;;;;19.81;89.39;97508.53;10377675;28;20080;-56
2022/07/30 01:00:54;;;;;;;21.52;17.45;;;;;;;19.80;89.09;97512.06;10377574;28;20021;-56
2022/07/30 01:05:53;;;;;;;20.05;17.13;;;;;;;19.80;89.09;97511.19;10377257;28;20449;-56
2022/07/30 01:10:52;;;;;;;20.17;17.05;;;;;;;19.83;88.74;97506.66;10336434;28;20134;-56
2022/07/30 01:15:51;;;;;;;20.38;16.83;;;;;;;19.80;88.71;97506.78;10336278;28;20025;-56
2022/07/30 01:21:06;;;;;;;19.83;16.73;;;;;;;19.78;88.61;97503.34;10336623;28;20495;-56
2022/07/30 01:26:08;;;;;;;21.50;16.95;;;;;;;19.80;88.32;97511.19;10351309;28;20063;-56
2022/07/30 01:31:09;;;;;;;18.30;15.15;;;;;;;19.71;88.34;97517.69;10376151;28;20068;-56
2022/07/30 01:36:13;;;;;;;19.60;16.42;;;;;;;19.75;87.88;97508.75;10376150;28;20488;-56
2022/07/30 01:41:14;;;;;;;18.95;15.73;;;;;;;19.71;87.32;97501.91;10376752;28;20073;-56
2022/07/30 01:46:16;;;;;;;19.80;14.70;;;;;;;19.70;86.75;97521.28;10376188;28;20506;-56
2022/07/30 01:51:18;;;;;;;16.23;14.25;;;;;;;19.71;85.83;97507.16;10376838;28;20072;-56
2022/07/30 01:56:20;;;;;;;17.33;14.40;;;;;;;19.53;85.32;97502.63;10375520;28;20523;-56
2022/07/30 02:01:19;;;;;;;17.27;13.73;;;;;;;19.36;84.76;97504.16;10375534;28;20445;-56
2022/07/30 02:06:29;;;;;;;19.48;13.60;;;;;;;19.16;85.20;97512.88;10375110;28;20057;-56
2022/07/30 02:16:53;;;;;;;17.02;14.35;;;;;;;18.96;85.53;97503.13;10375179;28;20233;-56
2022/07/30 02:21:59;;;;;;;19.05;14.40;;;;;;;18.93;85.51;97498.00;10374887;28;20494;-56
2022/07/30 02:27:15;;;;;;;18.35;13.80;;;;;;;18.78;86.14;97495.94;10374989;28;20491;-56
2022/07/30 02:32:17;;;;;;;16.83;14.40;;;;;;;18.78;85.78;97493.31;10372688;28;20075;-56
2022/07/30 02:37:21;;;;;;;19.35;13.68;;;;;;;18.64;85.59;97479.81;10374318;28;20064;-56
2022/07/30 02:42:22;;;;;;;18.40;13.93;;;;;;;18.75;85.39;97482.91;10374051;28;20085;-56
2022/07/30 02:47:22;;;;;;;14.85;12.40;;;;;;;18.67;85.14;97496.34;10373841;28;20068;-56
2022/07/30 02:52:24;;;;;;;14.30;11.88;;;;;;;18.68;85.03;97492.81;10373866;28;20084;-58
2022/07/30 02:57:24;;;;;;;15.25;11.90;;;;;;;18.74;84.21;97497.84;10373061;28;20071;-56
2022/07/30 03:02:24;;;;;;;16.73;13.43;;;;;;;18.66;83.94;97489.34;10373225;28;20072;-56
2022/07/30 03:07:24;;;;;;;17.38;13.55;;;;;;;18.60;83.87;97492.22;10372788;28;20083;-56
2022/07/30 03:12:27;;;;;;;17.92;13.63;;;;;;;18.60;83.53;97495.69;10372194;28;20512;-56
2022/07/30 03:17:30;;;;;;;17.17;14.05;;;;;;;18.61;83.53;97491.28;10372618;28;20059;-56
2022/07/30 03:22:33;;;;;;;17.17;13.80;;;;;;;18.61;83.75;97486.88;10372377;28;20065;-56
2022/07/30 03:27:37;;;;;;;19.88;14.23;;;;;;;18.59;83.59;97491.34;10372162;28;20053;-56
2022/07/30 03:32:36;;;;;;;16.92;13.57;;;;;;;18.66;83.68;97491.13;10374031;28;20087;-56
2022/07/30 03:37:38;;;;;;;17.42;12.75;;;;;;;18.71;83.03;97497.09;10371903;28;20072;-56
2022/07/30 03:42:37;;;;;;;15.23;11.77;;;;;;;18.75;83.06;97493.44;10371507;28;20087;-56
2022/07/30 03:47:39;;;;;;;15.82;11.07;;;;;;;18.69;81.79;97504.16;10371375;28;20060;-56
2022/07/30 03:52:40;;;;;;;17.55;12.43;;;;;;;18.58;81.67;97508.03;10371122;28;20068;-56
2022/07/30 03:57:39;;;;;;;18.40;13.32;;;;;;;18.33;82.11;97517.72;10371482;28;20103;-56
2022/07/30 04:02:42;;;;;;;16.17;13.18;;;;;;;18.12;82.58;97520.19;10371671;28;20068;-56
2022/07/30 04:07:41;;;;;;;16.88;12.18;;;;;;;18.09;82.67;97525.56;10368293;28;20060;-56
2022/07/30 04:12:41;;;;;;;17.60;12.38;;;;;;;18.19;82.55;97521.69;10371419;28;20500;-56
2022/07/30 04:17:54;;;;;;;14.43;11.77;;;;;;;18.36;82.02;97512.34;10367913;28;20119;-56
2022/07/30 04:22:54;;;;;;;22.00;14.23;;;;;;;18.51;81.71;97516.22;10371883;28;20064;-56
2022/07/30 04:27:54;;;;;;;17.10;11.55;;;;;;;18.69;80.46;97518.19;10377189;28;20555;-56
2022/07/30 04:32:53;;;;;;;15.20;11.82;;;;;;;18.85;80.17;97514.97;10376523;28;20367;-56
2022/07/30 04:37:52;;;;;;;16.02;12.55;;;;;;;19.06;79.75;97524.66;10377166;28;20045;-56
2022/07/30 04:42:51;;;;;;;16.33;11.57;;;;;;;19.22;79.04;97515.25;10378283;28;20424;-56
2022/07/30 04:47:52;;;;;;;15.82;12.32;;;;;;;19.48;78.18;97517.75;10380528;28;20037;-56
2022/07/30 04:52:54;;;;;;;18.15;11.73;;;;;;;19.65;77.99;97521.47;10379078;28;20068;-56
2022/07/30 04:57:54;;;;;;;16.00;11.00;;;;;;;19.79;77.17;97510.34;10377076;28;20130;-56
2022/07/30 05:02:55;;;;;;;13.27;10.82;;;;;;;20.05;75.78;97508.38;10379215;28;20111;-56
2022/07/30 05:07:54;;;;;;;12.40;10.75;;;;;;;20.17;74.59;97510.50;10377797;28;20075;-57
2022/07/30 05:12:53;;;;;;;12.25;10.13;;;;;;;20.39;74.00;97522.72;10377758;28;20487;-57
2022/07/30 05:17:52;;;;;;;14.50;11.73;;;;;;;20.60;74.08;97521.78;10378247;28;20443;-56
2022/07/30 05:22:51;;;;;;;14.32;11.98;;;;;;;20.84;73.72;97526.84;10377406;28;20481;-56
2022/07/30 05:27:51;;;;;;;13.30;11.80;;;;;;;21.04;73.12;97520.66;10377180;28;20115;-56
2022/07/30 05:32:50;;;;;;;12.32;10.45;;;;;;;21.25;71.11;97535.50;10378592;28;20075;-56
2022/07/30 05:37:49;;;;;;;14.73;11.30;;;;;;;21.49;70.28;97519.41;10376938;28;20033;-57
2022/07/30 05:42:48;;;;;;;12.68;9.05;;;;;;;21.72;67.52;97518.28;10377132;28;20056;-56
2022/07/30 05:47:47;;;;;;;11.63;9.00;;;;;;;22.02;66.53;97518.56;10377737;28;20148;-57
2022/07/30 05:52:46;;;;;;;8.70;7.15;;;;;;;22.31;63.38;97519.69;10376736;28;20407;-56
2022/07/30 05:57:45;;;;;;;10.13;7.97;;;;;;;22.61;61.83;97513.72;10376338;28;20103;-56
2022/07/30 06:02:44;;;;;;;12.50;8.93;;;;;;;22.89;61.24;97512.28;10378130;28;20460;-56
2022/07/30 06:07:43;;;;;;;10.85;8.35;;;;;;;23.04;58.57;97503.47;10363257;28;20065;-57
2022/07/30 06:12:42;;;;;;;11.50;8.00;;;;;;;23.21;58.15;97516.66;10334905;28;20080;-57
2022/07/30 06:17:43;;;;;;;12.95;8.38;;;;;;;23.46;56.76;97520.53;10335566;28;20099;-57
2022/07/30 06:22:42;;;;;;;10.45;8.43;;;;;;;23.69;56.80;97513.13;10336419;28;20069;-57
2022/07/30 06:27:42;;;;;;;10.38;8.48;;;;;;;23.99;56.27;97500.72;10357515;28;20068;-57
2022/07/30 06:32:42;;;;;;;10.05;8.45;;;;;;;24.35;55.76;97491.50;10371466;28;20068;-57
2022/07/30 06:37:44;;;;;;;10.52;8.10;;;;;;;24.61;54.12;97497.84;10368405;28;20073;-57
2022/07/30 06:42:43;;;;;;;14.00;8.25;;;;;;;24.76;53.20;97492.56;10366569;28;20081;-57
2022/07/30 06:47:42;;;;;;;8.85;7.95;;;;;;;25.02;51.45;97497.09;10366353;28;20120;-57
2022/07/30 06:52:41;;;;;;;10.52;8.02;;;;;;;25.23;50.97;97484.25;10363978;28;20112;-56
2022/07/30 06:57:40;;;;;;;9.13;7.50;;;;;;;25.49;49.78;97479.03;10364278;28;20115;-58
2022/07/30 07:02:41;;;;;;;12.23;7.40;;;;;;;25.64;46.04;97479.84;10368469;28;20041;-57
2022/07/30 07:07:40;;;;;;;8.60;6.90;;;;;;;25.90;46.96;97473.66;10356652;28;20057;-56
2022/07/30 07:12:39;;;;;;;9.20;6.40;;;;;;;26.16;45.62;97479.84;10327592;28;20112;-57
2022/07/30 07:17:39;;;;;;;8.43;6.43;;;;;;;26.48;45.78;97475.94;10329459;28;20041;-57
2022/07/30 07:22:38;;;;;;;8.45;7.28;;;;;;;26.69;46.28;97481.53;10329154;28;20073;-56
2022/07/30 07:27:37;;;;;;;11.63;7.38;;;;;;;26.91;44.84;97484.44;10351684;28;20453;-57
2022/07/30 07:32:36;;;;;;;8.73;7.18;;;;;;;27.17;44.31;97484.34;10371332;28;20508;-56
2022/07/30 07:37:35;;;;;;;9.45;6.70;;;;;;;27.38;43.63;97477.44;10372795;28;20083;-57
2022/07/30 07:42:34;;;;;;;7.70;6.25;;;;;;;27.59;42.35;97468.84;10371188;28;20080;-57
2022/07/30 07:47:47;;;;;;;9.20;6.63;;;;;;;27.85;41.90;97458.88;10370361;28;20120;-57
2022/07/30 07:52:46;;;;;;;9.05;6.75;;;;;;;28.13;41.41;97446.97;10372065;28;20590;-57
2022/07/30 07:57:45;;;;;;;9.65;7.15;;;;;;;28.45;41.67;97440.94;10371833;28;20439;-58
2022/07/30 08:02:44;;;;;;;10.65;6.85;;;;;;;28.84;39.21;97442.28;10371549;28;20064;-57
2022/07/30 08:07:44;;;;;;;7.68;6.22;;;;;;;29.11;40.01;97442.81;10371230;28;20079;-57
2022/07/30 08:12:43;;;;;;;8.10;6.00;;;;;;;29.39;38.15;97436.97;10369396;28;20068;-56
2022/07/30 08:17:43;;;;;;;7.93;6.10;;;;;;;29.63;37.82;97425.19;10371218;28;20498;-55
2022/07/30 08:22:42;;;;;;;10.23;5.97;;;;;;;29.91;37.27;97429.94;10371900;28;20467;-56
2022/07/30 08:27:44;;;;;;;8.82;5.82;;;;;;;30.09;35.47;97424.84;10351892;28;20061;-57
2022/07/30 08:32:43;;;;;;;6.78;5.70;;;;;;;30.13;35.38;97423.56;10331245;28;20501;-57
2022/07/30 08:37:43;;;;;;;6.38;5.25;;;;;;;30.26;34.64;97422.53;10330314;28;20423;-55
2022/07/30 08:42:42;;;;;;;7.80;6.15;;;;;;;30.23;34.00;97425.47;10329629;28;20107;-57
2022/07/30 08:47:44;;;;;;;6.38;5.50;;;;;;;30.22;34.03;97419.25;10329696;28;20060;-56
2022/07/30 08:52:44;;;;;;;7.18;6.25;;;;;;;30.38;33.61;97418.78;10330119;28;20057;-56
2022/07/30 08:57:43;;;;;;;6.90;6.20;;;;;;;30.59;34.54;97401.84;10329702;28;20477;-56
2022/07/30 09:02:43;;;;;;;10.05;6.50;;;;;;;30.82;33.73;97395.28;10329659;28;20065;-57
2022/07/30 09:07:42;;;;;;;9.88;6.40;;;;;;;31.06;34.87;97397.63;10364930;28;20103;-57
2022/07/30 09:12:43;;;;;;;9.57;6.13;;;;;;;31.27;34.22;97393.97;10376676;28;20053;-57
2022/07/30 09:17:57;;;;;;;10.05;5.97;;;;;;;31.46;32.98;97388.59;10377713;28;20060;-57
2022/07/30 09:22:59;;;;;;;7.05;6.00;;;;;;;31.57;32.59;97385.81;10377704;28;20067;-57
2022/07/30 09:27:58;;;;;;;8.85;6.53;;;;;;;31.65;32.59;97377.03;10377065;28;20075;-57
2022/07/30 09:32:58;;;;;;;8.13;6.30;;;;;;;31.84;33.53;97375.31;10376842;28;20071;-57
2022/07/30 09:38:02;;;;;;;7.35;5.95;;;;;;;31.98;32.56;97369.50;10377173;28;20064;-57
2022/07/30 09:43:07;;;;;;;8.20;6.38;;;;;;;32.00;31.67;97362.97;10376426;28;20492;-57
2022/07/30 09:48:20;;;;;;;6.90;5.82;;;;;;;32.00;32.53;97356.78;10376637;28;20064;-57
2022/07/30 09:53:23;;;;;;;7.78;6.30;;;;;;;31.93;31.67;97356.50;10376884;28;20084;-57
2022/07/30 09:58:22;;;;;;;8.13;6.35;;;;;;;31.88;31.54;97352.59;10376719;28;20061;-57
2022/07/30 10:03:24;;;;;;;8.25;6.00;;;;;;;32.14;31.47;97350.13;10376447;28;20069;-57
2022/07/30 10:08:40;;;;;;;8.43;6.43;;;;;;;32.30;30.48;97339.59;10356386;28;20065;-57
2022/07/30 10:13:40;;;;;;;5.95;5.45;;;;;;;32.61;30.42;97337.47;10335112;28;20080;-57
2022/07/30 10:18:41;;;;;;;8.38;6.35;;;;;;;32.89;30.55;97326.69;10334128;28;20088;-56
2022/07/30 10:23:41;;;;;;;6.90;6.20;;;;;;;33.05;29.48;97331.41;10335020;28;20077;-58
2022/07/30 10:28:42;;;;;;;9.05;5.60;;;;;;;33.25;28.77;97319.53;10334167;28;20075;-57
2022/07/30 10:33:41;;;;;;;9.00;6.47;;;;;;;33.37;29.06;97314.75;10374651;28;20075;-57
2022/07/30 10:38:43;;;;;;;8.95;6.13;;;;;;;33.47;28.60;97303.88;10374097;28;20141;-57
2022/07/30 10:44:08;;;;;;;8.75;6.47;;;;;;;33.61;28.00;97286.38;10375275;28;20077;-57
2022/07/30 10:49:12;;;;;;;9.27;5.82;;;;;;;33.45;27.65;97293.28;10365619;28;20075;-57
2022/07/30 10:54:32;;;;;;;5.95;5.35;;;;;;;33.60;28.50;97277.44;10374384;28;20067;-57
2022/07/30 11:00:11;;;;;;;6.50;5.90;;;;;;;34.01;27.79;97283.06;10374201;28;20064;-57
2022/07/30 11:05:19;;;;;;;6.45;5.80;;;;;;;34.17;27.25;97270.69;10327114;28;20064;-57
2022/07/30 11:10:35;;;;;;;6.95;6.25;;;;;;;34.20;27.11;97257.75;10363339;28;20485;-58
2022/07/30 11:15:54;;;;;;;6.90;6.00;;;;;;;34.41;26.53;97260.00;10373312;28;20071;-58
2022/07/30 11:21:16;;;;;;;6.78;5.80;;;;;;;34.82;27.24;97249.31;10372284;28;20069;-57
2022/07/30 11:26:45;;;;;;;6.80;5.70;;;;;;;35.37;26.18;97241.63;10371963;28;20053;-57
2022/07/30 11:31:44;;;;;;;6.55;5.85;;;;;;;35.64;24.71;97233.16;10372459;28;20138;-57
2022/07/30 11:37:02;;;;;;;6.53;5.88;;;;;;;35.58;24.84;97223.06;10372353;28;20412;-58
2022/07/30 11:42:27;;;;;;;6.57;5.75;;;;;;;35.19;25.73;97223.75;10372638;28;20484;-57
2022/07/30 11:47:27;;;;;;;8.88;6.47;;;;;;;35.10;25.64;97213.97;10372237;28;20065;-58
2022/07/30 11:52:27;;;;;;;7.13;6.50;;;;;;;35.12;25.51;97204.72;10371674;28;20166;-56
2022/07/30 11:57:42;;;;;;;7.10;6.40;;;;;;;35.04;26.10;97207.38;10371975;28;20064;-58
2022/07/30 12:02:41;;;;;;;8.45;6.68;;;;;;;34.92;26.01;97196.09;10371096;28;20072;-57
2022/07/30 12:07:40;;;;;;;7.78;6.13;;;;;;;34.87;25.55;97197.59;10357530;28;20083;-58
2022/07/30 12:12:39;;;;;;;6.80;6.18;;;;;;;34.85;26.50;97188.88;10330639;28;20069;-57
2022/07/30 12:17:41;;;;;;;7.07;5.90;;;;;;;34.46;26.61;97179.53;10329952;28;20034;-56
2022/07/30 12:22:40;;;;;;;6.78;6.13;;;;;;;34.31;26.74;97175.81;10329985;28;20068;-56
2022/07/30 12:27:45;;;;;;;6.65;5.75;;;;;;;34.58;27.23;97176.53;10342323;28;20040;-56
2022/07/30 12:32:44;;;;;;;6.90;6.20;;;;;;;34.39;26.44;97170.44;10371352;28;20076;-56
2022/07/30 12:38:02;;;;;;;7.68;6.38;;;;;;;34.37;26.57;97155.44;10370743;28;20065;-57
2022/07/30 12:43:01;;;;;;;7.80;6.25;;;;;;;34.15;26.91;97144.31;10371147;28;20096;-57
2022/07/30 12:48:00;;;;;;;9.73;6.28;;;;;;;34.11;26.53;97136.72;10378330;28;20078;-57
2022/07/30 12:52:59;;;;;;;8.57;6.50;;;;;;;34.21;26.51;97137.41;10378464;28;20544;-57
2022/07/30 12:58:04;;;;;;;9.80;6.18;;;;;;;34.12;26.69;97136.53;10378708;28;20400;-57
2022/07/30 13:03:19;;;;;;;8.05;6.65;;;;;;;33.70;26.23;97109.63;10378659;28;20067;-57
2022/07/30 13:08:18;;;;;;;8.80;6.22;;;;;;;33.72;26.84;97104.94;10377993;28;20068;-57
2022/07/30 13:13:17;;;;;;;9.00;5.85;;;;;;;33.78;27.22;97091.69;10378211;28;20091;-57
2022/07/30 13:18:16;;;;;;;6.55;5.85;;;;;;;34.06;28.46;97102.19;10377834;28;20120;-57
2022/07/30 13:23:14;;;;;;;9.02;6.45;;;;;;;34.24;28.18;97094.84;10376912;28;20045;-57
2022/07/30 13:28:13;;;;;;;7.00;6.18;;;;;;;34.19;26.58;97091.81;10378880;28;20040;-57
2022/07/30 13:33:13;;;;;;;7.85;7.05;;;;;;;34.26;27.69;97083.88;10379141;28;20554;-57
2022/07/30 13:38:12;;;;;;;11.85;6.32;;;;;;;34.06;28.19;97086.03;10377341;28;20064;-57
2022/07/30 13:43:11;;;;;;;7.88;5.90;;;;;;;34.09;27.74;97086.53;10377011;28;20088;-57
2022/07/30 13:48:10;;;;;;;6.68;5.57;;;;;;;34.18;27.62;97081.19;10377071;28;20036;-57
2022/07/30 13:53:10;;;;;;;6.10;5.25;;;;;;;34.16;27.73;97088.59;10376000;28;20072;-56
2022/07/30 13:58:09;;;;;;;7.68;6.03;;;;;;;34.14;27.30;97077.97;10375972;28;20460;-56
2022/07/30 14:03:10;;;;;;;11.77;9.25;;;;;;;34.13;28.18;97065.53;10376100;28;20051;-56
2022/07/30 14:08:10;;;;;;;9.45;5.95;;;;;;;33.98;28.14;97068.03;10357725;28;20100;-57
2022/07/30 14:13:09;;;;;;;9.75;5.88;;;;;;;34.05;28.61;97079.81;10334582;28;20076;-57
2022/07/30 14:18:08;;;;;;;8.10;6.00;;;;;;;33.98;28.76;97073.41;10334335;28;20061;-57
2022/07/30 14:23:08;;;;;;;7.40;6.57;;;;;;;34.04;29.06;97082.66;10334483;28;20037;-57
2022/07/30 14:28:07;;;;;;;8.20;6.53;;;;;;;33.92;28.97;97067.84;10348801;28;20457;-57
2022/07/30 14:33:07;;;;;;;10.38;6.35;;;;;;;33.82;29.12;97059.91;10375282;28;20492;-57
2022/07/30 14:38:06;;;;;;;7.05;5.97;;;;;;;33.76;29.49;97063.25;10373335;28;20068;-57
2022/07/30 14:43:05;;;;;;;7.93;6.32;;;;;;;33.64;29.89;97055.47;10373867;28;20539;-58
2022/07/30 14:48:04;;;;;;;7.10;6.40;;;;;;;33.19;29.98;97050.41;10374789;28;20099;-57
2022/07/30 14:53:03;;;;;;;7.50;6.43;;;;;;;33.16;30.30;97056.97;10373575;28;20083;-57
2022/07/30 14:58:02;;;;;;;9.07;6.90;;;;;;;33.05;31.63;97055.34;10373646;28;20048;-57
2022/07/30 15:03:01;;;;;;;7.72;6.80;;;;;;;32.83;31.53;97056.75;10374163;28;20091;-57
2022/07/30 15:08:00;;;;;;;9.25;6.97;;;;;;;32.51;32.33;97046.59;10357035;28;20113;-57
2022/07/30 15:12:59;;;;;;;8.85;6.18;;;;;;;32.36;32.77;97040.91;10361953;28;20604;-57
2022/07/30 15:17:58;;;;;;;7.65;6.85;;;;;;;32.29;33.72;97031.78;10373409;28;20147;-57
2022/07/30 15:22:57;;;;;;;9.18;7.00;;;;;;;32.10;32.57;97027.44;10373196;28;20535;-57
2022/07/30 15:27:56;;;;;;;8.80;6.82;;;;;;;31.94;33.45;97021.91;10386674;28;20479;-57
2022/07/30 15:32:55;;;;;;;8.48;7.53;;;;;;;31.67;34.37;97012.09;10368688;28;20040;-57
2022/07/30 15:37:54;;;;;;;9.45;7.25;;;;;;;31.47;35.38;97016.69;10369738;28;20112;-57
2022/07/30 15:42:53;;;;;;;8.48;7.57;;;;;;;31.49;36.22;97023.59;10371016;28;20060;-57
2022/07/30 15:47:52;;;;;;;9.13;8.20;;;;;;;31.59;35.59;97037.84;10370658;28;20464;-57
2022/07/30 15:52:51;;;;;;;8.48;7.22;;;;;;;31.64;36.08;97039.19;10366563;28;20045;-57
2022/07/30 15:57:50;;;;;;;8.00;7.20;;;;;;;31.66;36.29;97053.31;10368266;28;20412;-57
2022/07/30 16:02:49;;;;;;;9.48;7.47;;;;;;;31.54;36.21;97061.56;10368200;28;20041;-57
2022/07/30 16:07:48;;;;;;;12.57;8.43;;;;;;;31.28;36.70;97076.63;10358711;28;20546;-57
2022/07/30 16:12:47;;;;;;;10.35;7.75;;;;;;;30.79;37.16;97097.34;10369212;28;20632;-57
2022/07/30 16:17:46;;;;;;;7.68;6.88;;;;;;;30.10;38.09;97104.56;10369705;28;20398;-56
2022/07/30 16:22:45;;;;;;;9.70;7.15;;;;;;;29.15;39.70;97102.28;10369626;28;20037;-57
2022/07/30 16:27:44;;;;;;;9.45;6.88;;;;;;;28.50;41.51;97114.91;10371682;28;20032;-57
2022/07/30 16:32:43;;;;;;;10.63;7.30;;;;;;;28.34;42.66;97120.72;10371087;28;20120;-58
2022/07/30 16:37:42;;;;;;;11.18;6.88;;;;;;;28.43;43.02;97110.13;10366495;28;20041;-57
2022/07/30 16:42:41;;;;;;;11.55;9.23;;;;;;;28.38;43.66;97103.44;10370768;28;20071;-57
2022/07/30 16:47:40;;;;;;;10.60;8.20;;;;;;;28.28;44.88;97106.06;10371123;28;20045;-57
2022/07/30 16:52:39;;;;;;;10.80;8.40;;;;;;;28.22;45.18;97106.56;10370284;28;20037;-57
2022/07/30 16:57:38;;;;;;;11.52;7.72;;;;;;;28.19;44.42;97120.16;10370878;28;20065;-57
2022/07/30 17:02:37;;;;;;;15.15;9.50;;;;;;;27.78;45.10;97127.88;10371083;28;20044;-57
2022/07/30 17:07:36;;;;;;;8.95;7.47;;;;;;;27.59;44.26;97139.19;10368755;28;20127;-55
2022/07/30 17:12:35;;;;;;;10.75;7.63;;;;;;;27.41;44.77;97154.78;10352842;28;20203;-57
2022/07/30 17:17:34;;;;;;;8.65;7.75;;;;;;;27.39;44.85;97164.72;10360163;28;20033;-57
2022/07/30 17:22:33;;;;;;;11.07;7.70;;;;;;;27.39;44.78;97161.19;10362056;28;20539;-57
2022/07/30 17:27:32;;;;;;;10.93;7.80;;;;;;;27.38;45.19;97171.00;10366855;28;20028;-57
2022/07/30 17:32:31;;;;;;;9.57;7.07;;;;;;;27.28;44.18;97178.00;10372134;28;20068;-57
2022/07/30 17:37:30;;;;;;;8.00;6.60;;;;;;;27.22;44.34;97186.50;10376874;28;20068;-57
2022/07/30 17:42:29;;;;;;;7.80;6.68;;;;;;;27.16;44.02;97195.81;10375511;28;20095;-57
2022/07/30 17:47:28;;;;;;;9.27;6.75;;;;;;;27.07;44.29;97212.50;10376103;28;20021;-56
2022/07/30 17:52:27;;;;;;;8.40;7.00;;;;;;;27.05;43.98;97216.25;10375375;28;20039;-56
2022/07/30 17:57:26;;;;;;;7.97;6.80;;;;;;;27.01;44.67;97222.78;10374621;28;20423;-57
2022/07/30 18:02:25;;;;;;;8.60;6.18;;;;;;;26.89;44.97;97224.56;10374088;28;20099;-57
2022/07/30 18:07:24;;;;;;;9.45;7.10;;;;;;;26.64;45.76;97226.38;10366595;28;20029;-57
2022/07/30 18:12:23;;;;;;;10.02;7.00;;;;;;;26.59;45.29;97249.81;10374552;28;20065;-56
2022/07/30 18:17:22;;;;;;;10.05;6.40;;;;;;;26.42;45.24;97259.06;10374568;28;20040;-57
2022/07/30 18:22:21;;;;;;;7.72;6.93;;;;;;;26.39;45.80;97300.97;10373667;28;20037;-57
2022/07/30 18:27:20;;;;;;;7.88;6.72;;;;;;;26.24;45.43;97333.03;10372548;28;20672;-57
2022/07/30 18:32:19;;;;;;;9.85;6.70;;;;;;;26.11;45.75;97346.34;10375578;28;20056;-57
2022/07/30 18:37:18;;;;;;;8.40;5.70;;;;;;;25.90;45.21;97346.03;10374096;28;20071;-57
2022/07/30 18:42:17;;;;;;;8.40;5.97;;;;;;;25.79;45.08;97353.06;10359680;28;20037;-57
2022/07/30 18:47:17;;;;;;;7.25;6.22;;;;;;;25.70;45.28;97375.81;10357668;28;21780;-57
2022/07/30 18:52:16;;;;;;;7.15;5.55;;;;;;;25.69;45.22;97396.22;10372675;28;20566;-57
2022/07/30 18:57:15;;;;;;;5.75;5.13;;;;;;;25.43;45.61;97399.72;10375375;28;20079;-57
2022/07/30 19:02:14;;;;;;;6.13;5.47;;;;;;;25.20;47.31;97455.25;10363110;28;20040;-57
2022/07/30 19:07:13;;;;;;;9.20;5.90;;;;;;;24.95;49.34;97484.31;10366871;28;20041;-57
2022/07/30 19:12:12;;;;;;;8.50;6.70;;;;;;;24.67;51.91;97521.38;10373833;28;20025;-57
2022/07/30 19:17:11;;;;;;;9.85;7.68;;;;;;;23.92;57.61;97531.16;10373145;28;20710;-57
2022/07/30 19:22:10;;;;;;;10.57;8.90;;;;;;;23.13;63.17;97566.50;10372847;28;20028;-56
2022/07/30 19:27:09;;;;;;;12.80;10.35;;;;;;;22.13;71.30;97594.66;10376186;28;20095;-58
2022/07/30 19:32:08;;;;;;;14.52;12.10;;;;;;;20.99;80.57;97615.84;10369041;28;20047;-59
2022/07/30 19:37:07;;;;;;;16.05;14.30;;;;;;;19.77;90.99;97651.75;10361513;28;20029;-61
2022/07/30 19:42:07;;;;;;;20.80;15.65;;;;;;;19.00;97.03;97665.16;10362407;28;20045;-62
2022/07/30 19:47:06;;;;;;;21.52;17.08;;;;;;;18.73;98.56;97668.75;10370357;28;20072;-62
2022/07/30 19:52:06;;;;;;;21.83;18.40;;;;;;;18.84;100.00;97685.00;10370355;28;20104;-62
2022/07/30 19:57:05;;;;;;;21.90;17.98;;;;;;;18.76;100.00;97687.91;10370436;28;20087;-63
2022/07/30 20:02:04;;;;;;;24.63;19.65;;;;;;;18.65;100.00;97686.53;10370783;28;20080;-61
2022/07/30 20:07:03;;;;;;;27.88;20.40;;;;;;;18.89;100.00;97695.38;10367857;28;20025;-61
2022/07/30 20:12:03;;;;;;;26.10;21.13;;;;;;;18.99;100.00;97684.47;10369504;28;20497;-62
2022/07/30 20:17:02;;;;;;;26.67;21.17;;;;;;;19.15;100.00;97689.16;10370449;28;20060;-61
2022/07/30 20:22:01;;;;;;;33.35;24.42;;;;;;;19.24;100.00;97683.56;10362353;28;20060;-61
2022/07/30 20:27:00;;;;;;;38.97;24.67;;;;;;;19.38;100.00;97669.91;10365842;28;20067;-61
2022/07/30 20:31:59;;;;;;;26.80;21.85;;;;;;;19.34;100.00;97642.81;10361005;28;20045;-61
2022/07/30 20:36:58;;;;;;;31.00;22.83;;;;;;;19.29;100.00;97615.00;10362874;28;20061;-61
2022/07/30 20:42:12;;;;;;;27.52;22.52;;;;;;;19.21;100.00;97591.63;10369261;28;20079;-60
2022/07/30 20:47:12;;;;;;;28.63;21.85;;;;;;;19.13;100.00;97557.69;10369138;28;20060;-60
2022/07/30 20:52:11;;;;;;;28.77;20.98;;;;;;;19.08;100.00;97521.97;10365779;28;20498;-61
2022/07/30 20:57:11;;;;;;;25.10;18.92;;;;;;;18.94;100.00;97462.88;10365194;28;20377;-60
2022/07/30 21:02:10;;;;;;;23.52;16.63;;;;;;;18.68;100.00;97410.44;10367605;28;20081;-61
2022/07/30 21:07:09;;;;;;;16.60;12.27;;;;;;;18.64;100.00;97379.94;10369581;28;20120;-60
2022/07/30 21:12:08;;;;;;;12.80;9.30;;;;;;;18.45;100.00;97359.63;10375101;28;20036;-60
2022/07/30 21:17:07;;;;;;;9.30;6.30;;;;;;;18.26;100.00;97325.34;10378220;28;20052;-61
2022/07/30 21:22:06;;;;;;;14.85;10.25;;;;;;;18.02;100.00;97340.28;10371381;28;20043;-60
2022/07/30 21:27:05;;;;;;;11.98;8.70;;;;;;;17.96;100.00;97336.13;10375471;28;20449;-60
2022/07/30 21:32:04;;;;;;;7.40;5.47;;;;;;;17.95;100.00;97328.28;10376467;28;20043;-60
2022/07/30 21:37:03;;;;;;;9.43;6.00;;;;;;;17.90;100.00;97325.00;10375684;28;20065;-60
2022/07/30 21:42:02;;;;;;;11.48;6.88;;;;;;;17.98;100.00;97326.38;10375399;28;20055;-61
2022/07/30 21:47:01;;;;;;;7.85;5.57;;;;;;;18.05;100.00;97321.78;10376225;28;20515;-61
2022/07/30 21:52:00;;;;;;;6.30;4.75;;;;;;;18.09;100.00;97326.00;10370829;28;20064;-61
2022/07/30 21:56:59;;;;;;;6.57;4.65;;;;;;;18.10;100.00;97337.34;10376600;28;20029;-61
2022/07/30 22:01:58;;;;;;;;;;;;;;;17.98;100.00;97344.78;10375918;28;20028;-62
2022/07/30 22:06:58;;;;;;;11.60;7.73;;;;;;;18.06;100.00;97341.88;10375977;28;20382;-61
2022/07/30 22:11:57;;;;;;;11.25;7.72;;;;;;;18.12;100.00;97333.75;10373604;28;20077;-61
2022/07/30 22:16:56;;;;;;;11.18;8.40;;;;;;;18.09;100.00;97312.88;10372166;28;20040;-61
2022/07/30 22:21:55;;;;;;;10.65;9.15;;;;;;;18.15;100.00;97335.41;10366449;28;20501;-61
2022/07/30 22:26:54;;;;;;;13.35;10.68;;;;;;;18.22;100.00;97321.13;10374424;28;20025;-60
2022/07/30 22:31:52;;;;;;;14.55;11.15;;;;;;;18.22;100.00;97310.59;10374424;28;20043;-60
2022/07/30 22:36:51;;;;;;;11.02;9.20;;;;;;;18.36;100.00;97345.09;10374863;28;20108;-60
2022/07/30 22:41:50;;;;;;;11.82;9.00;;;;;;;18.40;100.00;97387.84;10375100;28;20144;-60
2022/07/30 22:46:49;;;;;;;;;;;;;;;18.37;100.00;97398.50;10374857;28;20558;-60
2022/07/30 22:51:48;;;;;;;7.23;5.57;;;;;;;18.36;100.00;97391.50;10374559;28;19917;-60
2022/07/30 22:56:47;;;;;;;8.50;5.70;;;;;;;18.36;100.00;97402.03;10369277;28;20044;-60
2022/07/30 23:01:46;;;;;;;9.15;5.75;;;;;;;18.35;100.00;97397.69;10373548;28;20480;-59
2022/07/30 23:06:45;;;;;;;7.25;4.80;;;;;;;18.28;100.00;97378.69;10374001;28;20060;-59